M I D A S
Marine Information and Data Acquisition System
Tripno 1046 of the Zeeleeuw from 2006-03-08 07:44:13 to 2006-03-08 13:42:24
Back to CruiseResearch ActivitiesStationsMapUnderway DataData graphs

EquipmentUnitsComment
TimeDGPSUTC
LatitudeDGPSDM.mWGS84
LongitudeDGPSDM.mWGS84
HeadingGyrodeg 
SOGDGPSknotsSpeed over ground
COGDGPSdegCourse over ground
DepthEcho soundermeters200 kHz
Missing or incorrect values are displayed as -999
Navigation data collected by the RV Zeeleeuw from 2006-03-08 07:41:22 to 2006-03-08 13:45:06
Time Latitude Longitude Heading SOG COG Depth
2006-03-08 07:42:28 51°13.597 2°56.092 134.2 0.1 245 10.4
2006-03-08 07:43:28 51°13.578 2°56.122 138 3 134 10.8
2006-03-08 07:44:28 51°13.533 2°56.19 140.1 4.5 134 11.6
2006-03-08 07:45:28 51°13.526 2°56.259 77.3 0.5 91 11.7
2006-03-08 07:46:28 51°13.523 2°56.247 59.9 1.1 50 5.6
2006-03-08 07:47:28 51°13.527 2°56.256 20.3 1.5 192 -999
2006-03-08 07:48:28 51°13.528 2°56.254 353.4 1.2 359 -999
2006-03-08 07:49:28 51°13.527 2°56.262 335.8 0.4 356 -999
2006-03-08 07:50:28 51°13.548 2°56.191 290.9 5.4 286 11.5
2006-03-08 07:51:28 51°13.597 2°56.039 307.1 6.5 302 11.3
2006-03-08 07:52:28 51°13.66 2°55.896 309.9 6.7 305 11.4
2006-03-08 07:53:28 51°13.728 2°55.758 315.7 6.5 311 11.9
2006-03-08 07:54:28 51°13.812 2°55.651 335.1 6.5 330 11.8
2006-03-08 07:55:28 51°13.91 2°55.578 341.6 6.6 336 11.8
2006-03-08 07:56:28 51°14.019 2°55.501 342.5 7.7 336 11.8
2006-03-08 07:57:28 51°14.145 2°55.404 339.8 8.9 333 11.8
2006-03-08 07:58:28 51°14.268 2°55.252 321 10.3 313 11.7
2006-03-08 07:59:28 51°14.39 2°55.01 314 12.4 308 11.8
2006-03-08 08:00:28 51°14.516 2°54.75 310.9 12.2 308 11.7
2006-03-08 08:01:28 51°14.654 2°54.5 317.5 12.8 316 11.4
2006-03-08 08:02:28 51°14.776 2°54.228 303.2 12.7 301 11.4
2006-03-08 08:03:28 51°14.886 2°53.94 301.6 12.6 298 10.9
2006-03-08 08:04:28 51°14.989 2°53.643 304.7 12.9 301 11.1
2006-03-08 08:05:28 51°15.098 2°53.347 304.8 13 301 11.6
2006-03-08 08:06:28 51°15.21 2°53.054 304.4 12.9 302 11.9
2006-03-08 08:07:28 51°15.321 2°52.764 301.9 12.7 298 12.4
2006-03-08 08:08:28 51°15.405 2°52.455 294 12.6 290 13
2006-03-08 08:09:28 51°15.439 2°52.131 276.8 12.3 273 13.5
2006-03-08 08:10:28 51°15.433 2°51.806 268.1 12.3 264 13.9
2006-03-08 08:11:28 51°15.416 2°51.48 270.8 12.4 268 14
2006-03-08 08:12:28 51°15.406 2°51.152 271 12.4 268 14.3
2006-03-08 08:13:28 51°15.396 2°50.823 269.6 12.4 266 14.3
2006-03-08 08:14:28 51°15.386 2°50.494 270.7 12.4 267 14.4
2006-03-08 08:15:28 51°15.375 2°50.164 271 12.5 268 14.4
2006-03-08 08:16:28 51°15.367 2°49.832 270.8 12.5 268 14.4
2006-03-08 08:17:28 51°15.372 2°49.5 274.9 12.5 271 14.5
2006-03-08 08:18:28 51°15.373 2°49.17 271.6 12.4 268 14.6
2006-03-08 08:19:28 51°15.368 2°48.841 272.2 12.3 268 14.4
2006-03-08 08:20:28 51°15.364 2°48.513 273.3 12.4 270 13
2006-03-08 08:21:28 51°15.359 2°48.182 272.8 12.5 270 11.7
2006-03-08 08:22:28 51°15.355 2°47.849 271.6 12.5 268 11.5
2006-03-08 08:23:28 51°15.353 2°47.516 273.7 12.6 270 12
2006-03-08 08:24:28 51°15.352 2°47.181 273 12.6 270 13
2006-03-08 08:25:28 51°15.351 2°46.848 272.8 12.5 270 14
2006-03-08 08:26:28 51°15.349 2°46.517 272.4 12.5 270 15.4
2006-03-08 08:27:28 51°15.351 2°46.187 272 12.4 270 16.4
2006-03-08 08:28:28 51°15.352 2°45.857 271.7 12.5 270 17.1
2006-03-08 08:29:28 51°15.36 2°45.524 276.2 12.6 275 18.5
2006-03-08 08:30:28 51°15.375 2°45.192 275.1 12.4 275 19.5
2006-03-08 08:31:28 51°15.394 2°44.864 275.6 12.4 275 19.1
2006-03-08 08:32:28 51°15.411 2°44.538 274.2 12.3 273 17
2006-03-08 08:33:28 51°15.425 2°44.21 274.9 12.4 273 14.7
2006-03-08 08:34:28 51°15.442 2°43.879 276 12.5 275 14.2
2006-03-08 08:35:28 51°15.46 2°43.548 276 12.5 275 14.4
2006-03-08 08:36:28 51°15.471 2°43.216 271.9 12.5 271 14
2006-03-08 08:37:28 51°15.471 2°42.885 270.7 12.5 270 12.4
2006-03-08 08:38:28 51°15.472 2°42.553 271.1 12.5 270 11.7
2006-03-08 08:39:28 51°15.477 2°42.219 273.5 12.6 272 12
2006-03-08 08:40:28 51°15.511 2°41.889 279.2 12.7 280 11.5
2006-03-08 08:41:28 51°15.532 2°41.556 274.3 12.3 273 12
2006-03-08 08:42:28 51°15.55 2°41.293 275.7 7.9 278 12.5
2006-03-08 08:43:28 51°15.55 2°41.142 263.4 4.6 271 13.3
2006-03-08 08:44:28 51°15.553 2°41.036 263.4 3.9 273 13.2
2006-03-08 08:45:28 51°15.549 2°40.934 252.5 3.8 256 13.8
2006-03-08 08:46:28 51°15.52 2°40.853 225.4 3.4 228 13.7
2006-03-08 08:47:28 51°15.477 2°40.793 214.5 3.1 214 13.6
2006-03-08 08:48:28 51°15.444 2°40.757 223.2 1.6 228 13.4
2006-03-08 08:49:28 51°15.453 2°40.772 259.6 1.3 54 -999
2006-03-08 08:50:28 51°15.467 2°40.798 266.1 1.3 49 13.7
2006-03-08 08:51:28 51°15.482 2°40.823 270.7 1.3 48 13.5
2006-03-08 08:52:28 51°15.497 2°40.848 277.3 1.3 45 13.5
2006-03-08 08:53:28 51°15.512 2°40.873 286.8 1.3 44 13.5
2006-03-08 08:54:28 51°15.526 2°40.895 299 1.2 42 13.7
2006-03-08 08:55:28 51°15.54 2°40.915 308.7 1.1 38 13.6
2006-03-08 08:56:28 51°15.554 2°40.932 316 1.1 36 13.7
2006-03-08 08:57:28 51°15.569 2°40.949 319.6 1.1 36 13.8
2006-03-08 08:58:28 51°15.584 2°40.965 319 1 33 13.6
2006-03-08 08:59:28 51°15.629 2°40.898 301.9 6 307 13.7
2006-03-08 09:00:28 51°15.667 2°40.716 273.3 7.6 273 15.5
2006-03-08 09:01:28 51°15.648 2°40.467 262 11.8 263 16.6
2006-03-08 09:02:28 51°15.624 2°40.141 262.4 12.5 262 18.8
2006-03-08 09:03:28 51°15.603 2°39.811 265 12.6 264 19.9
2006-03-08 09:04:28 51°15.57 2°39.482 260.7 12.6 260 20.3
2006-03-08 09:05:28 51°15.54 2°39.152 263.7 12.6 262 19.8
2006-03-08 09:06:28 51°15.51 2°38.82 262.1 12.6 262 18.3
2006-03-08 09:07:28 51°15.482 2°38.489 262.5 12.6 262 15
2006-03-08 09:08:28 51°15.457 2°38.157 265.6 12.5 264 12.3
2006-03-08 09:09:28 51°15.431 2°37.827 264.7 12.5 265 11.6
2006-03-08 09:10:28 51°15.408 2°37.498 264.6 12.5 265 12.3
2006-03-08 09:11:28 51°15.385 2°37.168 264.3 12.5 264 12.9
2006-03-08 09:12:28 51°15.364 2°36.839 265.8 12.5 265 13.4
2006-03-08 09:13:28 51°15.344 2°36.508 264.7 12.6 265 15.5
2006-03-08 09:14:28 51°15.326 2°36.176 264.2 12.5 265 18.1
2006-03-08 09:15:28 51°15.309 2°35.845 263.8 12.5 265 20.8
2006-03-08 09:16:28 51°15.292 2°35.517 263.3 12.3 265 25.4
2006-03-08 09:17:28 51°15.272 2°35.191 264.3 12.5 265 26.8
2006-03-08 09:18:28 51°15.254 2°34.861 263.4 12.4 265 27.1
2006-03-08 09:19:28 51°15.239 2°34.534 264 12.3 266 27.1
2006-03-08 09:20:28 51°15.22 2°34.243 260.9 9.4 262 26.8
2006-03-08 09:21:28 51°15.21 2°34.041 265.6 6.3 268 26.4
2006-03-08 09:22:28 51°15.203 2°33.884 259.5 6.3 260 25.9
2006-03-08 09:23:28 51°15.17 2°33.701 253 7.6 252 25.1
2006-03-08 09:24:28 51°15.133 2°33.504 253.9 7.8 253 23.3
2006-03-08 09:25:28 51°15.097 2°33.321 252.9 6.1 252 22.5
2006-03-08 09:26:28 51°15.072 2°33.185 253.8 5 255 20.8
2006-03-08 09:27:28 51°15.044 2°33.073 243.1 4.3 240 19.4
2006-03-08 09:28:28 51°14.996 2°33.031 182.2 3 170 19.5
2006-03-08 09:29:28 51°14.949 2°33.071 171.4 2.8 164 20.6
2006-03-08 09:30:28 51°14.908 2°33.062 215.9 2.6 215 22.4
2006-03-08 09:31:28 51°14.922 2°32.965 318 5.3 325 20.3
2006-03-08 09:32:28 51°15 2°33 47 4 42 19.6
2006-03-08 09:33:28 51°15.019 2°33.052 92.8 2.6 82 19.8
2006-03-08 09:34:28 51°14.973 2°33.107 182.3 4.1 181 21.6
2006-03-08 09:35:28 51°14.938 2°33.032 270.9 3.4 274 20.8
2006-03-08 09:36:28 51°14.948 2°33.001 305.2 0.5 24 20.8
2006-03-08 09:37:28 51°14.959 2°33.008 333.1 0.8 22 20.1
2006-03-08 09:38:28 51°14.972 2°33.019 341.7 0.9 27 19.7
2006-03-08 09:39:28 51°14.985 2°33.03 341.3 0.9 29 20.6
2006-03-08 09:40:28 51°14.998 2°33.041 336.7 0.9 30 20
2006-03-08 09:41:28 51°15.01 2°33.051 332.8 0.9 31 19.4
2006-03-08 09:42:28 51°15.023 2°33.062 330.9 0.9 30 20.2
2006-03-08 09:43:28 51°15.035 2°33.071 330.7 0.8 27 19.7
2006-03-08 09:44:28 51°15.047 2°33.081 331.2 0.9 29 18.9
2006-03-08 09:45:28 51°15.061 2°33.089 334.9 1.3 359 18.9
2006-03-08 09:46:28 51°15.097 2°33.09 10.7 2.8 11 17.7
2006-03-08 09:47:28 51°15.137 2°33.144 70.9 3.9 68 17.4
2006-03-08 09:48:28 51°15.111 2°33.232 157.3 4 154 20.4
2006-03-08 09:49:28 51°15.054 2°33.201 236.9 4 237 21.6
2006-03-08 09:50:28 51°15.019 2°33.117 221.4 3.3 218 20.1
2006-03-08 09:51:28 51°14.982 2°33.071 232.2 2.5 229 20.9
2006-03-08 09:52:28 51°14.964 2°33.027 237.3 1.6 236 18.9
2006-03-08 09:53:28 51°14.958 2°33.007 247.5 0.3 276 20.2
2006-03-08 09:54:28 51°14.964 2°33.008 263.5 0.4 17 19.9
2006-03-08 09:55:28 51°14.972 2°33.015 285.2 0.6 33 19.9
2006-03-08 09:56:28 51°14.98 2°33.024 303.3 0.6 32 19.6
2006-03-08 09:57:28 51°14.989 2°33.033 319.6 0.6 30 20
2006-03-08 09:58:28 51°14.998 2°33.042 331.2 0.7 39 20
2006-03-08 09:59:28 51°15.006 2°33.052 339.1 0.6 30 19.2
2006-03-08 10:00:28 51°15.014 2°33.061 341.6 0.6 34 20.1
2006-03-08 10:01:28 51°15.023 2°33.07 342.1 0.6 35 19
2006-03-08 10:02:28 51°15.031 2°33.081 341.2 0.6 40 20
2006-03-08 10:03:28 51°15.039 2°33.092 338.1 0.7 41 19.2
2006-03-08 10:04:28 51°15.048 2°33.104 337 0.6 44 20.2
2006-03-08 10:05:28 51°15.055 2°33.117 337.6 0.7 52 19.8
2006-03-08 10:06:28 51°15.062 2°33.13 339.1 0.7 54 19.4
2006-03-08 10:07:28 51°15.067 2°33.144 342.3 0.6 61 20.8
2006-03-08 10:08:28 51°15.072 2°33.158 345 0.6 63 20.2
2006-03-08 10:09:28 51°15.076 2°33.173 349.4 0.7 66 20
2006-03-08 10:10:28 51°15.081 2°33.187 351.2 0.7 64 20.8
2006-03-08 10:11:28 51°15.086 2°33.202 352.4 0.6 57 20.5
2006-03-08 10:12:28 51°15.093 2°33.217 350.9 0.9 36 20.1
2006-03-08 10:13:28 51°15.114 2°33.216 324.4 1.6 343 19.8
2006-03-08 10:14:28 51°15.137 2°33.188 293.9 1.8 310 18.4
2006-03-08 10:15:28 51°15.152 2°33.158 282.1 1.2 314 16.9
2006-03-08 10:16:28 51°15.165 2°33.141 279.8 0.9 330 16.1
2006-03-08 10:17:28 51°15.178 2°33.137 291 0.8 3 15.7
2006-03-08 10:18:28 51°15.193 2°33.139 312.4 1.4 343 15.4
2006-03-08 10:19:28 51°15.244 2°33.136 17.8 4 18 13.8
2006-03-08 10:20:28 51°15.276 2°33.224 97.7 3.9 96 14.7
2006-03-08 10:21:28 51°15.233 2°33.289 165.2 3.9 157 17.6
2006-03-08 10:22:28 51°15.167 2°33.338 166.5 4.1 161 20.6
2006-03-08 10:23:28 51°15.138 2°33.351 196.6 0.7 151 21.7
2006-03-08 10:24:28 51°15.136 2°33.365 196.9 1 57 22
2006-03-08 10:25:28 51°15.15 2°33.384 166.1 1.1 17 22.5
2006-03-08 10:26:28 51°15.166 2°33.393 145.3 0.8 21 22.3
2006-03-08 10:27:28 51°15.171 2°33.398 169.3 0.3 82 22.4
2006-03-08 10:28:28 51°15.165 2°33.409 186.2 0.6 135 22.9
2006-03-08 10:29:28 51°15.157 2°33.42 193.1 0.5 152 22.7
2006-03-08 10:30:28 51°15.154 2°33.425 199.9 0.3 120 22.1
2006-03-08 10:31:28 51°15.15 2°33.43 210.4 0.2 144 22
2006-03-08 10:32:28 51°15.148 2°33.432 221.6 0.1 120 22
2006-03-08 10:33:28 51°15.147 2°33.432 234.7 0.1 276 22
2006-03-08 10:34:28 51°15.148 2°33.431 246.7 0.2 357 22.1
2006-03-08 10:35:28 51°15.151 2°33.428 256 0.3 304 22.1
2006-03-08 10:36:28 51°15.155 2°33.421 258.4 0.4 312 22.3
2006-03-08 10:37:28 51°15.158 2°33.416 251.5 0.2 336 22.6
2006-03-08 10:38:28 51°15.159 2°33.416 234.3 0.1 49 22.7
2006-03-08 10:39:28 51°15.159 2°33.419 215.9 0.1 125 22.7
2006-03-08 10:40:28 51°15.156 2°33.423 204.3 0.3 141 22.2
2006-03-08 10:41:28 51°15.152 2°33.426 204 0.2 141 21.9
2006-03-08 10:42:28 51°15.15 2°33.427 211.8 0.1 133 21.9
2006-03-08 10:43:28 51°15.151 2°33.429 221 -999 213 21.9
2006-03-08 10:44:28 51°15.151 2°33.428 234.5 -999 314 21.9
2006-03-08 10:45:28 51°15.152 2°33.428 240.2 0.1 13 22
2006-03-08 10:46:28 51°15.152 2°33.423 242.6 0.1 266 22
2006-03-08 10:47:28 51°15.153 2°33.42 244.4 0.2 322 22.1
2006-03-08 10:48:28 51°15.156 2°33.42 244.6 0.1 359 22.3
2006-03-08 10:49:28 51°15.156 2°33.42 232.8 -999 343 22.3
2006-03-08 10:50:28 51°15.156 2°33.422 215.6 -999 97 22.1
2006-03-08 10:51:28 51°15.155 2°33.422 209.7 0.1 180 22
2006-03-08 10:52:28 51°15.152 2°33.423 208.9 0.1 179 21.9
2006-03-08 10:53:28 51°15.15 2°33.425 212 0.1 144 21.7
2006-03-08 10:54:28 51°15.149 2°33.427 213.3 -999 168 21.8
2006-03-08 10:55:28 51°15.149 2°33.426 219.8 0.1 354 21.7
2006-03-08 10:56:28 51°15.15 2°33.427 224.4 0.1 56 21.7
2006-03-08 10:57:28 51°15.15 2°33.426 226.2 -999 283 21.8
2006-03-08 10:58:28 51°15.15 2°33.425 226.8 -999 299 21.7
2006-03-08 10:59:28 51°15.15 2°33.425 227.5 -999 61 21.8
2006-03-08 11:00:28 51°15.151 2°33.425 226.7 -999 355 21.8
2006-03-08 11:01:28 51°15.151 2°33.425 227.7 -999 257 21.8
2006-03-08 11:02:28 51°15.152 2°33.424 230 0.1 318 21.8
2006-03-08 11:03:28 51°15.153 2°33.423 231.5 0.1 45 21.9
2006-03-08 11:04:28 51°15.153 2°33.425 226.4 0.1 44 22
2006-03-08 11:05:28 51°15.153 2°33.424 227.2 0.1 256 21.9
2006-03-08 11:06:28 51°15.153 2°33.421 233.5 -999 73 21.9
2006-03-08 11:07:28 51°15.155 2°33.422 233.5 0.1 37 22
2006-03-08 11:08:28 51°15.156 2°33.423 231 0.1 288 22
2006-03-08 11:09:28 51°15.155 2°33.422 225.6 0.1 244 22
2006-03-08 11:10:28 51°15.154 2°33.423 220.1 0.1 126 21.9
2006-03-08 11:11:28 51°15.154 2°33.423 217.2 -999 259 21.9
2006-03-08 11:12:28 51°15.154 2°33.422 218.9 -999 300 21.9
2006-03-08 11:13:28 51°15.155 2°33.423 217.2 0.2 55 22
2006-03-08 11:14:28 51°15.156 2°33.423 213.3 0.1 246 22
2006-03-08 11:15:28 51°15.156 2°33.421 214.4 -999 103 22
2006-03-08 11:16:28 51°15.156 2°33.421 208.7 0.1 352 22
2006-03-08 11:17:28 51°15.156 2°33.422 207.3 0.1 215 22
2006-03-08 11:18:28 51°15.155 2°33.423 206.4 0.1 147 21.9
2006-03-08 11:19:28 51°15.154 2°33.424 204.1 0.1 152 21.8
2006-03-08 11:20:28 51°15.153 2°33.426 205.2 0.1 249 21.7
2006-03-08 11:21:28 51°15.153 2°33.426 205.1 0.1 240 21.8
2006-03-08 11:22:28 51°15.153 2°33.425 211.4 -999 298 21.7
2006-03-08 11:23:28 51°15.154 2°33.427 209.6 0.1 325 21.7
2006-03-08 11:24:28 51°15.154 2°33.425 212.6 -999 315 21.8
2006-03-08 11:25:28 51°15.154 2°33.425 214.6 -999 355 21.7
2006-03-08 11:26:28 51°15.154 2°33.425 216 0.1 5 21.8
2006-03-08 11:27:28 51°15.155 2°33.426 216.9 -999 311 21.8
2006-03-08 11:28:28 51°15.155 2°33.426 216.6 -999 309 21.8
2006-03-08 11:29:28 51°15.155 2°33.427 215.2 0.1 88 21.8
2006-03-08 11:30:28 51°15.154 2°33.427 215.4 -999 125 21.7
2006-03-08 11:31:28 51°15.154 2°33.428 215.8 0.1 248 21.8
2006-03-08 11:32:28 51°15.154 2°33.43 219.1 0.1 103 21.8
2006-03-08 11:33:28 51°15.153 2°33.429 223.2 0.1 170 21.7
2006-03-08 11:34:28 51°15.153 2°33.429 223.8 -999 131 21.8
2006-03-08 11:35:28 51°15.153 2°33.429 228 -999 188 21.7
2006-03-08 11:36:28 51°15.153 2°33.428 228.7 0.1 136 21.7
2006-03-08 11:37:28 51°15.153 2°33.429 225.5 0.1 156 21.7
2006-03-08 11:38:28 51°15.151 2°33.429 225.4 0.1 211 21.6
2006-03-08 11:39:28 51°15.15 2°33.43 228 0.1 68 21.6
2006-03-08 11:40:28 51°15.151 2°33.43 234.2 0.1 276 21.6
2006-03-08 11:41:28 51°15.152 2°33.428 241.4 0.1 1 21.7
2006-03-08 11:42:28 51°15.154 2°33.427 245.2 0.1 319 21.8
2006-03-08 11:43:28 51°15.155 2°33.425 246.7 0.1 313 21.8
2006-03-08 11:44:28 51°15.156 2°33.424 244.9 0.1 324 21.8
2006-03-08 11:45:28 51°15.156 2°33.424 236.6 -999 343 21.8
2006-03-08 11:46:28 51°15.156 2°33.425 224.5 0.1 93 21.8
2006-03-08 11:47:28 51°15.155 2°33.425 218.6 0.1 150 21.7
2006-03-08 11:48:28 51°15.149 2°33.423 211.9 1 208 21.3
2006-03-08 11:49:28 51°15.137 2°33.416 213.9 0.5 202 22.2
2006-03-08 11:50:28 51°15.133 2°33.41 230.4 0.2 259 21.6
2006-03-08 11:51:28 51°15.135 2°33.399 259.1 0.6 294 21.5
2006-03-08 11:52:28 51°15.139 2°33.378 268 1 279 21.9
2006-03-08 11:53:28 51°15.139 2°33.361 252.9 0.4 295 21.5
2006-03-08 11:54:28 51°15.145 2°33.355 257.6 0.6 337 21.3
2006-03-08 11:55:28 51°15.155 2°33.354 274.8 0.6 10 20.7
2006-03-08 11:56:28 51°15.165 2°33.325 271.4 2.3 275 20.9
2006-03-08 11:57:28 51°15.114 2°33.281 177.6 5.5 169 20.2
2006-03-08 11:58:28 51°15.032 2°33.342 166.8 4.1 160 22.1
2006-03-08 11:59:28 51°14.985 2°33.355 188.4 2.6 179 22.2
2006-03-08 12:00:28 51°14.945 2°33.31 246.4 2 241 22.5
2006-03-08 12:01:29 51°14.947 2°33.318 282.3 0.7 74 -999
2006-03-08 12:02:28 51°14.951 2°33.338 306.3 0.8 80 22.9
2006-03-08 12:03:28 51°14.963 2°33.338 321.8 1 349 22.5
2006-03-08 12:04:28 51°14.977 2°33.334 322.3 0.8 358 22.8
2006-03-08 12:05:28 51°14.989 2°33.337 320.8 0.7 16 22.6
2006-03-08 12:06:28 51°15.001 2°33.34 328 1.2 350 22.2
2006-03-08 12:07:28 51°15.054 2°33.353 38.4 4.2 38 22.4
2006-03-08 12:08:28 51°15.054 2°33.456 126.4 4.2 129 22.3
2006-03-08 12:09:28 51°14.995 2°33.486 192.4 2.8 181 23.8
2006-03-08 12:10:28 51°14.967 2°33.486 204.4 1.1 181 24.2
2006-03-08 12:11:28 51°14.954 2°33.486 213.7 0.7 182 24.3
2006-03-08 12:12:28 51°14.943 2°33.474 238.9 0.7 245 24.6
2006-03-08 12:13:28 51°14.949 2°33.457 276.5 1 332 24.4
2006-03-08 12:14:28 51°14.954 2°33.492 315.9 1.4 86 24.1
2006-03-08 12:15:28 51°14.976 2°33.494 319.3 1.4 353 23.9
2006-03-08 12:16:28 51°14.997 2°33.494 318.1 1 10 23.9
2006-03-08 12:17:28 51°15.013 2°33.501 317.8 1 21 24
2006-03-08 12:18:28 51°15.028 2°33.513 322.7 1 30 23.6
2006-03-08 12:19:28 51°15.043 2°33.528 329.4 1 33 23.2
2006-03-08 12:20:28 51°15.057 2°33.544 335.2 1 36 23.5
2006-03-08 12:21:28 51°15.069 2°33.561 340.7 0.9 43 23.4
2006-03-08 12:22:28 51°15.081 2°33.577 344.3 0.9 34 23.4
2006-03-08 12:23:28 51°15.094 2°33.593 342 1 37 23.2
2006-03-08 12:24:28 51°15.106 2°33.607 340 0.9 32 23.4
2006-03-08 12:25:28 51°15.119 2°33.621 340.2 0.9 37 23.2
2006-03-08 12:26:28 51°15.132 2°33.635 338.2 1 37 23.4
2006-03-08 12:27:28 51°15.142 2°33.647 337 1 37 23.1
2006-03-08 12:28:28 51°15.154 2°33.662 338.6 0.9 39 23.1
2006-03-08 12:29:28 51°15.166 2°33.676 338.3 1 37 23
2006-03-08 12:30:28 51°15.177 2°33.688 338.2 0.9 31 23.5
2006-03-08 12:31:28 51°15.189 2°33.701 337.5 0.9 31 23.2
2006-03-08 12:32:28 51°15.23 2°33.691 340.4 4.2 342 22.5
2006-03-08 12:33:28 51°15.31 2°33.73 49.2 5.7 47 23
2006-03-08 12:34:28 51°15.296 2°33.901 114.1 8.6 108 24
2006-03-08 12:35:28 51°15.275 2°34.132 107.8 6.5 106 25.2
2006-03-08 12:36:28 51°15.237 2°34.231 136.2 3.6 131 25.6
2006-03-08 12:37:28 51°15.19 2°34.383 107.4 8.6 105 25.4
2006-03-08 12:38:28 51°15.155 2°34.663 104.2 12.3 101 25.8
2006-03-08 12:39:28 51°15.106 2°34.988 106.9 12.9 105 25.7
2006-03-08 12:40:28 51°15.059 2°35.317 104.7 12.7 102 22.6
2006-03-08 12:41:28 51°15.012 2°35.646 103.6 12.4 100 18.1
2006-03-08 12:42:28 51°14.97 2°35.97 103.7 12.6 101 16.9
2006-03-08 12:43:28 51°14.924 2°36.298 106.3 12.7 103 15.3
2006-03-08 12:44:28 51°14.888 2°36.628 104.2 12.7 100 13.7
2006-03-08 12:45:28 51°14.849 2°36.955 102.3 12.2 98 10.3
2006-03-08 12:46:28 51°14.812 2°37.276 103.5 12.4 100 9.9
2006-03-08 12:47:28 51°14.771 2°37.6 103.2 12.4 99 10.9
2006-03-08 12:48:28 51°14.734 2°37.925 103.4 12.9 102 13.3
2006-03-08 12:49:28 51°14.691 2°38.258 101.4 12.8 98 15.7
2006-03-08 12:50:28 51°14.671 2°38.591 98 12.4 95 16.4
2006-03-08 12:51:28 51°14.652 2°38.919 98 12.5 96 16.2
2006-03-08 12:52:28 51°14.627 2°39.258 97.7 12.8 95 16.6
2006-03-08 12:53:28 51°14.611 2°39.586 97.8 12.2 96 14.5
2006-03-08 12:54:28 51°14.592 2°39.91 98.7 12.3 95 12.6
2006-03-08 12:55:28 51°14.569 2°40.236 101.3 12.3 97 12
2006-03-08 12:56:28 51°14.548 2°40.563 100.1 12.4 97 13
2006-03-08 12:57:28 51°14.52 2°40.889 102.2 12.2 99 13.1
2006-03-08 12:58:28 51°14.497 2°41.217 100.2 12.6 97 13.1
2006-03-08 12:59:28 51°14.486 2°41.546 94.8 12.5 91 13.7
2006-03-08 13:00:28 51°14.483 2°41.878 92.5 12.3 89 14.3
2006-03-08 13:01:28 51°14.479 2°42.206 95.1 12.3 90 15.8
2006-03-08 13:02:28 51°14.491 2°42.531 89.1 12.2 86 17
2006-03-08 13:03:28 51°14.502 2°42.854 89.5 12.1 86 17.1
2006-03-08 13:04:28 51°14.509 2°43.172 90.7 12.2 88 16.8
2006-03-08 13:05:28 51°14.523 2°43.498 89.5 12.3 88 15.9
2006-03-08 13:06:28 51°14.523 2°43.825 92.5 12.5 90 15.6
2006-03-08 13:07:28 51°14.534 2°44.156 87.1 12.5 85 14.8
2006-03-08 13:08:28 51°14.545 2°44.487 89.8 12.2 87 13.8
2006-03-08 13:09:28 51°14.556 2°44.814 88.6 12.5 86 12.1
2006-03-08 13:10:28 51°14.567 2°45.142 90.6 12.3 87 10.5
2006-03-08 13:11:28 51°14.576 2°45.465 89.4 12.2 86 8.5
2006-03-08 13:12:28 51°14.591 2°45.786 85.8 12.3 82 7.9
2006-03-08 13:13:28 51°14.6 2°46.114 93.9 12.7 90 9.4
2006-03-08 13:14:28 51°14.675 2°46.414 66 12.4 60 10.3
2006-03-08 13:15:28 51°14.768 2°46.708 69.5 12.5 64 10.5
2006-03-08 13:16:28 51°14.863 2°47 67.5 12.5 63 10.4
2006-03-08 13:17:28 51°14.949 2°47.298 71.4 12.3 69 10.9
2006-03-08 13:18:28 51°15.03 2°47.597 68.2 12.3 66 11.1
2006-03-08 13:19:28 51°15.105 2°47.902 76.5 12.5 74 11.6
2006-03-08 13:20:28 51°15.157 2°48.226 78.1 12.7 75 12.4
2006-03-08 13:21:28 51°15.209 2°48.546 79.7 12.6 76 12.7
2006-03-08 13:22:28 51°15.245 2°48.872 85.4 12.6 81 12.6
2006-03-08 13:23:28 51°15.267 2°49.205 88.3 12.6 85 12.5
2006-03-08 13:24:28 51°15.301 2°49.532 86.8 12.4 85 12.5
2006-03-08 13:25:28 51°15.331 2°49.862 81.5 12.5 79 12.5
2006-03-08 13:26:28 51°15.365 2°50.192 84.7 12.6 81 12.4
2006-03-08 13:27:28 51°15.396 2°50.52 85.2 12.5 83 12.4
2006-03-08 13:28:28 51°15.423 2°50.846 86.5 12.5 84 12.3
2006-03-08 13:29:28 51°15.451 2°51.167 85.3 12.2 81 12.2
2006-03-08 13:30:28 51°15.479 2°51.491 84.9 12.4 81 12.2
2006-03-08 13:31:28 51°15.451 2°51.811 111.1 12.4 110 12
2006-03-08 13:32:28 51°15.372 2°52.121 116.2 12.5 114 11.4
2006-03-08 13:33:28 51°15.291 2°52.434 115.5 12.8 116 10.9
2006-03-08 13:34:28 51°15.185 2°52.725 119.8 12.8 119 10.3
2006-03-08 13:35:28 51°15.084 2°53.017 120.8 12.5 120 9.6
2006-03-08 13:36:28 51°14.976 2°53.3 125 12.8 126 9.5
2006-03-08 13:37:28 51°14.849 2°53.568 128.4 12.8 126 9.5
2006-03-08 13:38:28 51°14.734 2°53.843 120.7 12.4 118 10.1
2006-03-08 13:39:28 51°14.634 2°54.127 120.4 12.2 119 10
2006-03-08 13:40:28 51°14.544 2°54.413 115.2 11.9 112 10.7
2006-03-08 13:41:28 51°14.472 2°54.713 114.5 12.1 111 9.6
2006-03-08 13:42:28 51°14.384 2°55.001 120.6 12.1 117 9.4
2006-03-08 13:43:43 51°14.248 2°55.289 140 8.6 137 9.6
2006-03-08 13:44:44 51°14.16 2°55.384 153.8 4.7 150 -999